Time;durP1;ratioP1;P1;durP2;ratioP2;P2;SDS_P1;SDS_P2;PMS_P1;PMS_P2;Temp;Humidity;BMP_temperature;BMP_pressure;BME280_temperature;BME280_humidity;BME280_pressure;Samples;Min_cycle;Max_cycle;Signal;HPM_P1;HPM_P2
2022/08/17 10:39:31;;;;;;;10.58;6.95;;;;;;;36.10;41.11;99866.91;1785700;79;25776;-72
2022/08/17 10:48:08;;;;;;;10.82;7.87;;;;;;;37.44;38.84;99871.86;1821450;77;25436;-73
2022/08/17 10:51:00;;;;;;;11.08;8.90;;;;;;;37.25;38.37;99874.34;1718349;83;25199;-73
2022/08/17 10:53:39;;;;;;;11.33;7.40;;;;;;;36.79;38.17;99876.09;1732827;82;25946;-74
2022/08/17 10:56:17;;;;;;;11.90;8.43;;;;;;;36.28;38.29;99875.66;1736895;82;25619;-73
2022/08/17 10:58:59;;;;;;;12.80;8.03;;;;;;;35.88;38.44;99862.59;1737305;82;25439;-73
2022/08/17 11:01:45;;;;;;;8.28;7.53;;;;;;;35.82;39.68;99869.42;1733148;82;25588;-73
2022/08/17 11:04:40;;;;;;;8.75;7.85;;;;;;;35.98;39.40;99870.86;1643882;86;25622;-73
2022/08/17 11:08:04;;;;;;;9.70;7.12;;;;;;;35.96;39.36;99864.34;1635207;87;27293;-73
2022/08/17 11:11:06;;;;;;;9.98;7.35;;;;;;;35.91;39.94;99858.00;1635252;87;25634;-73
2022/08/17 11:14:06;;;;;;;10.45;7.83;;;;;;;36.55;38.66;99864.50;1635665;87;25587;-73
2022/08/17 11:17:01;;;;;;;12.68;7.53;;;;;;;36.94;37.97;99853.39;1635524;87;25448;-73
2022/08/17 11:20:09;;;;;;;12.85;7.78;;;;;;;37.22;38.15;99851.38;1635751;87;25699;-73
2022/08/17 11:23:10;;;;;;;8.38;7.15;;;;;;;37.64;37.24;99852.58;1635842;87;27576;-75
2022/08/17 11:25:48;;;;;;;7.62;6.80;;;;;;;38.01;36.80;99854.48;1576340;90;25870;-75
2022/08/17 11:28:20;;;;;;;10.88;7.53;;;;;;;38.54;36.70;99859.02;1557547;92;25716;-73
2022/08/17 11:31:03;;;;;;;12.82;6.87;;;;;;;38.74;35.95;99858.77;1557498;91;25257;-74
2022/08/17 11:33:47;;;;;;;9.95;6.60;;;;;;;38.57;35.53;99859.38;1558340;92;25480;-74
2022/08/17 11:36:52;;;;;;;12.05;6.37;;;;;;;38.39;34.68;99852.22;1575777;91;27532;-74
2022/08/17 11:39:30;;;;;;;9.88;6.28;;;;;;;38.36;35.33;99850.41;1557416;92;25534;-75
2022/08/17 11:42:45;;;;;;;9.83;6.90;;;;;;;38.79;35.37;99855.78;1576670;91;25623;-75
2022/08/17 11:46:01;;;;;;;11.65;7.03;;;;;;;38.98;34.82;99852.53;1549688;92;25508;-73
2022/08/17 11:52:05;;;;;;;11.68;7.08;;;;;;;38.14;34.25;99854.77;1525379;93;27593;-73
2022/08/17 11:54:47;;;;;;;9.20;6.58;;;;;;;37.56;33.94;99855.89;1556465;89;25666;-73
2022/08/17 11:57:31;;;;;;;14.73;7.15;;;;;;;37.10;34.22;99857.58;1598213;89;25570;-74
2022/08/17 12:00:10;;;;;;;11.65;6.70;;;;;;;36.65;34.64;99862.27;1597790;89;26141;-73
2022/08/17 12:02:44;;;;;;;12.20;7.28;;;;;;;36.18;35.15;99860.95;1618047;85;25950;-73
2022/08/17 12:05:26;;;;;;;10.53;7.00;;;;;;;35.70;35.76;99850.22;1675985;85;27026;-73
2022/08/17 12:08:07;;;;;;;11.78;6.97;;;;;;;35.44;36.75;99858.61;1653650;86;25374;-74
2022/08/17 12:10:39;;;;;;;11.45;8.15;;;;;;;35.26;37.05;99859.02;1659518;86;25665;-73
2022/08/17 12:13:13;;;;;;;13.35;8.10;;;;;;;35.27;38.23;99861.98;1653955;86;25919;-74
2022/08/17 12:15:47;;;;;;;13.62;7.42;;;;;;;35.68;38.39;99861.95;1632523;87;25610;-73
2022/08/17 12:18:27;;;;;;;7.72;6.92;;;;;;;36.18;38.08;99862.36;1632786;87;28213;-74
2022/08/17 12:21:24;;;;;;;14.98;7.40;;;;;;;36.75;37.89;99863.65;1631176;87;25850;-74
2022/08/17 12:24:21;;;;;;;11.87;6.70;;;;;;;37.32;37.19;99857.70;1705251;84;25487;-74
2022/08/17 12:26:58;;;;;;;9.65;6.87;;;;;;;37.84;35.87;99855.87;1741142;82;25601;-74
2022/08/17 12:29:29;;;;;;;10.20;6.65;;;;;;;38.30;35.93;99851.19;1741428;82;25432;-74
2022/08/17 12:32:00;;;;;;;11.18;7.62;;;;;;;38.49;35.01;99854.91;1742235;82;27468;-74
2022/08/17 12:34:36;;;;;;;11.10;7.47;;;;;;;38.72;34.57;99862.75;1741971;82;25921;-75
2022/08/17 12:37:08;;;;;;;11.68;7.80;;;;;;;38.90;33.99;99854.35;1740489;81;25442;-74
2022/08/17 12:39:34;;;;;;;11.60;7.05;;;;;;;38.62;33.09;99857.25;1740485;81;25577;-74
2022/08/17 12:42:01;;;;;;;11.97;7.50;;;;;;;38.14;33.23;99856.83;1729966;82;25538;-74
2022/08/17 12:44:33;;;;;;;9.48;6.83;;;;;;;37.77;33.38;99857.13;1741084;82;27464;-74
2022/08/17 12:47:26;;;;;;;11.78;7.20;;;;;;;37.41;33.74;99863.79;1742323;81;25669;-74
2022/08/17 12:50:14;;;;;;;12.47;7.30;;;;;;;36.99;34.33;99861.11;1731183;81;25283;-74
2022/08/17 12:52:42;;;;;;;14.47;8.03;;;;;;;36.58;35.07;99864.14;1747198;82;25547;-75
2022/08/17 12:55:21;;;;;;;;;;;;;;;36.21;35.55;99859.20;1740349;82;25566;-74
2022/08/17 12:57:52;;;;;;;16.93;8.45;;;;;;;35.82;35.80;99861.75;1743298;81;28278;-74
2022/08/17 13:00:30;;;;;;;16.80;7.97;;;;;;;35.38;36.44;99864.79;1741554;81;25880;-74
2022/08/17 13:03:04;;;;;;;19.10;12.10;;;;;;;35.03;36.98;99862.14;1740866;82;25408;-74
2022/08/17 13:05:42;;;;;;;15.00;12.10;;;;;;;34.69;37.44;99865.83;1729692;82;25464;-74
2022/08/17 13:08:44;;;;;;;9.97;7.97;;;;;;;34.38;38.20;99857.93;1739743;81;25384;-74
2022/08/17 13:11:22;;;;;;;11.53;8.20;;;;;;;34.10;39.05;99860.98;1744046;81;28070;-73
2022/08/17 13:13:55;;;;;;;9.40;7.83;;;;;;;33.80;39.64;99862.36;1741493;81;25394;-73
2022/08/17 13:16:25;;;;;;;13.18;7.92;;;;;;;33.92;40.79;99863.34;1739471;81;25461;-73
2022/08/17 13:18:57;;;;;;;9.55;8.03;;;;;;;34.05;39.90;99858.84;1729894;82;25572;-74
2022/08/17 13:21:33;;;;;;;10.58;8.10;;;;;;;34.26;39.53;99863.98;1740082;81;25558;-74
2022/08/17 13:24:20;;;;;;;9.93;7.50;;;;;;;34.51;39.19;99857.62;1740012;81;27184;-73
2022/08/17 13:26:53;;;;;;;13.72;8.00;;;;;;;34.82;39.26;99864.76;1740483;82;25541;-73
2022/08/17 13:29:40;;;;;;;12.47;7.85;;;;;;;35.25;39.02;99852.50;1740577;82;25436;-73
2022/08/17 13:32:12;;;;;;;9.40;7.87;;;;;;;35.58;38.30;99851.36;1746062;82;25727;-73
2022/08/17 13:34:57;;;;;;;8.60;7.17;;;;;;;35.78;37.66;99847.78;1743381;81;25453;-74
2022/08/17 13:37:31;;;;;;;10.82;8.00;;;;;;;36.03;37.58;99847.02;1743277;82;27115;-74
2022/08/17 13:40:09;;;;;;;10.78;7.67;;;;;;;36.23;37.29;99837.73;1744969;81;25737;-73
2022/08/17 13:42:47;;;;;;;8.03;7.22;;;;;;;36.44;37.26;99837.03;1741835;81;25577;-73
2022/08/17 13:45:39;;;;;;;8.90;7.23;;;;;;;36.63;36.38;99834.60;1744535;81;25563;-74
2022/08/17 13:48:22;;;;;;;10.60;7.40;;;;;;;36.79;35.88;99829.61;1740094;81;25905;-74
2022/08/17 13:51:00;;;;;;;10.65;7.12;;;;;;;37.01;35.11;99835.36;1741105;82;27481;-73
2022/08/17 13:53:37;;;;;;;10.18;7.25;;;;;;;37.16;34.36;99838.00;1741168;81;25713;-74
2022/08/17 13:56:30;;;;;;;9.23;7.10;;;;;;;37.18;33.85;99841.77;1741815;81;25435;-72
2022/08/17 13:59:11;;;;;;;14.80;7.30;;;;;;;37.25;33.87;99842.69;1741194;82;25531;-73
2022/08/17 14:01:47;;;;;;;10.55;7.28;;;;;;;37.32;33.90;99846.42;1741607;81;25647;-73
2022/08/17 14:04:18;;;;;;;13.25;8.15;;;;;;;37.33;33.97;99841.58;1741920;82;27543;-73
2022/08/17 14:07:12;;;;;;;11.43;7.22;;;;;;;37.41;34.26;99841.23;1740507;81;25525;-74
2022/08/17 14:09:46;;;;;;;9.88;7.08;;;;;;;37.62;34.41;99839.63;1740660;82;25581;-73
2022/08/17 14:12:20;;;;;;;14.07;8.23;;;;;;;37.70;33.33;99836.45;1738623;82;25379;-74
2022/08/17 14:14:55;;;;;;;8.58;7.55;;;;;;;37.50;32.74;99839.58;1742841;81;25181;-73
2022/08/17 14:17:23;;;;;;;10.75;7.45;;;;;;;37.27;33.64;99848.58;1742391;82;27468;-73
2022/08/17 14:19:50;;;;;;;11.68;8.48;;;;;;;37.17;33.88;99839.56;1740665;81;25409;-74
2022/08/17 14:22:30;;;;;;;9.35;7.50;;;;;;;37.04;34.16;99838.47;1740523;82;25395;-74
2022/08/17 14:25:00;;;;;;;13.62;7.75;;;;;;;36.83;34.23;99838.61;1740524;82;25484;-73
2022/08/17 14:27:30;;;;;;;13.22;7.53;;;;;;;36.56;34.34;99846.98;1729979;82;26948;-74
2022/08/17 14:29:57;;;;;;;10.45;8.25;;;;;;;36.32;34.49;99850.89;1742253;81;27422;-73
2022/08/17 14:32:28;;;;;;;12.82;8.55;;;;;;;35.96;34.91;99848.08;1741769;82;25607;-73
2022/08/17 14:34:56;;;;;;;17.85;13.18;;;;;;;35.58;35.29;99842.92;1741372;82;25635;-73
2022/08/17 14:37:26;;;;;;;9.93;8.45;;;;;;;35.24;36.00;99847.49;1741163;82;25574;-73
2022/08/17 14:39:56;;;;;;;19.25;15.00;;;;;;;35.03;36.60;99844.52;1741421;81;25586;-73
2022/08/17 14:42:25;;;;;;;11.85;8.93;;;;;;;34.95;37.28;99848.36;1741789;81;27401;-73
2022/08/17 14:44:55;;;;;;;8.78;7.87;;;;;;;34.92;37.53;99845.91;1732256;82;25402;-73
2022/08/17 14:47:21;;;;;;;12.90;8.13;;;;;;;34.95;37.98;99851.93;1742015;81;25534;-73
2022/08/17 14:49:48;;;;;;;16.67;11.53;;;;;;;34.97;37.32;99852.84;1740728;82;25609;-73
2022/08/17 14:52:20;;;;;;;14.45;9.23;;;;;;;34.93;37.34;99844.62;1741992;82;25579;-73
2022/08/17 14:54:50;;;;;;;8.98;7.60;;;;;;;34.89;36.98;99844.07;1741688;82;27581;-73
2022/08/17 14:57:23;;;;;;;12.40;9.03;;;;;;;34.85;36.77;99843.48;1740494;82;25778;-73
2022/08/17 14:59:53;;;;;;;13.48;8.48;;;;;;;34.72;37.10;99841.02;1740628;82;25572;-73
2022/08/17 15:02:21;;;;;;;14.33;8.43;;;;;;;34.58;37.02;99845.38;1742478;82;25718;-73
2022/08/17 15:04:49;;;;;;;10.35;8.30;;;;;;;34.40;37.22;99838.56;1741848;82;25690;-73
2022/08/17 15:07:16;;;;;;;16.52;9.03;;;;;;;34.29;37.40;99834.92;1741134;82;28122;-73
2022/08/17 15:09:44;;;;;;;12.88;8.23;;;;;;;34.27;37.50;99836.05;1742134;82;25577;-73
2022/08/17 15:12:17;;;;;;;11.93;8.25;;;;;;;34.16;37.51;99827.42;1741593;82;25522;-73
2022/08/17 15:14:43;;;;;;;17.90;9.30;;;;;;;34.13;37.44;99832.59;1742475;82;26090;-73
2022/08/17 15:17:10;;;;;;;12.90;7.90;;;;;;;34.08;38.06;99836.08;1741754;82;25551;-73
2022/08/17 15:19:36;;;;;;;10.05;8.05;;;;;;;34.00;37.79;99832.87;1741300;82;28048;-72
2022/08/17 15:22:02;;;;;;;17.32;8.70;;;;;;;33.94;37.73;99832.02;1741610;82;25584;-72
2022/08/17 15:24:29;;;;;;;10.78;8.35;;;;;;;33.87;37.91;99842.98;1741476;81;25573;-72
2022/08/17 15:26:55;;;;;;;11.97;8.63;;;;;;;33.64;37.83;99846.70;1741059;82;25531;-73
2022/08/17 15:29:22;;;;;;;11.12;8.63;;;;;;;33.42;38.03;99837.86;1741813;81;25415;-73
2022/08/17 15:31:48;;;;;;;11.18;8.93;;;;;;;33.19;38.16;99841.59;1742879;82;27466;-73
2022/08/17 15:34:16;;;;;;;14.23;9.53;;;;;;;32.88;38.47;99838.48;1732504;82;25631;-74
2022/08/17 15:36:42;;;;;;;13.55;9.48;;;;;;;32.67;38.84;99836.70;1742438;82;25501;-73
2022/08/17 15:39:08;;;;;;;12.60;9.60;;;;;;;32.66;39.08;99868.73;1742263;82;26028;-74
2022/08/17 15:41:35;;;;;;;12.53;9.90;;;;;;;32.24;39.70;99845.05;1742500;81;25608;-74
2022/08/17 15:44:02;;;;;;;14.50;10.43;;;;;;;32.03;40.29;99845.38;1740680;82;27530;-74
2022/08/17 15:46:28;;;;;;;12.82;11.28;;;;;;;31.81;40.62;99845.55;1742114;82;25568;-73
2022/08/17 15:48:58;;;;;;;13.62;10.55;;;;;;;31.63;41.08;99844.92;1744052;82;25530;-73
2022/08/17 15:51:29;;;;;;;13.75;10.32;;;;;;;31.47;41.55;99839.77;1740819;82;25538;-73
2022/08/17 15:54:01;;;;;;;15.65;13.25;;;;;;;31.36;42.04;99849.20;1740397;81;25571;-73
2022/08/17 15:56:28;;;;;;;14.73;10.55;;;;;;;31.27;42.66;99844.39;1697768;84;28075;-73
2022/08/17 15:58:54;;;;;;;14.78;10.43;;;;;;;31.23;42.99;99841.61;1701185;83;25799;-73
2022/08/17 16:01:23;;;;;;;17.90;11.88;;;;;;;31.14;43.33;99842.97;1745983;81;25578;-73
2022/08/17 16:03:52;;;;;;;14.28;11.50;;;;;;;31.04;43.85;99849.14;1746306;82;25690;-73
2022/08/17 16:06:18;;;;;;;13.78;10.58;;;;;;;30.92;44.08;99850.78;1741245;82;25613;-73
2022/08/17 16:08:44;;;;;;;17.52;11.22;;;;;;;30.82;44.27;99853.38;1741279;82;27580;-73
2022/08/17 16:11:14;;;;;;;16.67;11.68;;;;;;;30.71;44.29;99855.20;1740702;82;25574;-73
2022/08/17 16:13:42;;;;;;;19.48;11.43;;;;;;;30.63;44.60;99853.33;1740603;82;25430;-73
2022/08/17 16:16:10;;;;;;;21.48;14.00;;;;;;;30.52;45.04;99851.56;1743578;82;26141;-73
2022/08/17 16:18:37;;;;;;;18.98;12.58;;;;;;;30.44;45.24;99851.66;1745660;82;25570;-73
2022/08/17 16:21:24;;;;;;;16.57;11.65;;;;;;;30.32;45.32;99856.06;1742561;82;28005;-72
2022/08/17 16:24:05;;;;;;;12.47;11.33;;;;;;;30.21;45.48;99857.86;1743369;81;25463;-73
2022/08/17 16:26:34;;;;;;;17.20;11.45;;;;;;;30.09;45.60;99862.91;1699207;84;25581;-73
2022/08/17 16:29:04;;;;;;;16.87;12.37;;;;;;;29.96;45.80;99860.93;1699304;84;25408;-73
2022/08/17 16:31:32;;;;;;;15.10;11.85;;;;;;;29.86;46.21;99865.50;1694121;84;25623;-73
2022/08/17 16:33:59;;;;;;;22.37;12.70;;;;;;;29.71;46.41;99861.01;1701239;84;27457;-73
2022/08/17 16:36:30;;;;;;;14.07;11.50;;;;;;;29.60;46.66;99866.34;1741554;82;25432;-73
2022/08/17 16:38:57;;;;;;;17.98;11.95;;;;;;;29.52;46.95;99867.03;1740762;82;25379;-72
2022/08/17 16:44:07;;;;;;;14.75;11.73;;;;;;;29.29;47.38;99871.77;1745713;82;25654;-72
2022/08/17 16:46:38;;;;;;;15.53;12.20;;;;;;;29.17;47.66;99868.40;1741187;82;28099;-72
2022/08/17 16:49:02;;;;;;;19.80;12.87;;;;;;;29.06;48.02;99865.91;1741409;81;25473;-72
2022/08/17 16:51:30;;;;;;;19.25;11.65;;;;;;;28.95;48.24;99873.84;1742061;82;25576;-71
2022/08/17 16:53:57;;;;;;;15.63;13.03;;;;;;;28.84;48.56;99874.95;1741762;82;25471;-72
2022/08/17 16:56:24;;;;;;;16.67;12.30;;;;;;;28.72;48.70;99875.70;1742007;82;25585;-72
2022/08/17 16:58:52;;;;;;;14.18;12.63;;;;;;;28.60;48.85;99879.26;1741797;82;27474;-72
2022/08/17 17:01:20;;;;;;;19.53;13.70;;;;;;;28.47;49.18;99878.60;1741384;82;25536;-71
2022/08/17 17:03:51;;;;;;;17.70;14.58;;;;;;;28.38;49.45;99880.47;1741523;81;25489;-71
2022/08/17 17:06:29;;;;;;;19.02;12.73;;;;;;;28.27;50.04;99882.17;1743609;82;25564;-71
2022/08/17 17:09:04;;;;;;;21.45;12.98;;;;;;;28.16;50.15;99890.02;1742359;81;25553;-72
2022/08/17 17:14:44;;;;;;;16.27;13.55;;;;;;;27.92;50.88;99889.67;1678243;85;25482;-73
2022/08/17 17:17:37;;;;;;;16.75;12.75;;;;;;;27.74;51.37;99891.48;1654600;86;25518;-72
2022/08/17 17:20:20;;;;;;;20.45;14.68;;;;;;;27.63;51.64;99900.70;1676332;85;26039;-72
2022/08/17 17:23:07;;;;;;;18.90;13.55;;;;;;;27.49;52.19;99903.84;1676563;85;25444;-72
2022/08/17 17:25:39;;;;;;;15.43;12.53;;;;;;;27.38;52.60;99899.34;1675932;85;27321;-72
2022/08/17 17:28:13;;;;;;;15.60;13.03;;;;;;;27.29;52.84;99909.48;1675256;84;25944;-72
2022/08/17 17:30:51;;;;;;;17.42;14.10;;;;;;;27.17;53.07;99904.75;1641701;86;25638;-72
2022/08/17 17:33:22;;;;;;;14.23;12.53;;;;;;;27.05;53.24;99907.44;1651539;86;25640;-72
2022/08/17 17:36:03;;;;;;;23.62;16.95;;;;;;;26.93;53.70;99916.59;1675845;85;25439;-72
2022/08/17 17:38:43;;;;;;;19.07;14.87;;;;;;;26.82;54.00;99911.30;1675721;84;27711;-72
2022/08/17 17:41:20;;;;;;;21.68;14.38;;;;;;;26.75;54.27;99916.20;1675802;85;25523;-71
2022/08/17 17:43:51;;;;;;;23.98;14.95;;;;;;;26.64;54.79;99916.44;1675859;85;25603;-71
2022/08/17 17:46:36;;;;;;;18.70;14.03;;;;;;;26.55;55.02;99927.30;1674790;85;25493;-72
2022/08/17 17:49:04;;;;;;;19.10;14.43;;;;;;;26.46;55.10;99926.50;1675838;85;25439;-72
2022/08/17 17:51:58;;;;;;;18.90;13.95;;;;;;;26.38;55.45;99929.23;1680312;84;27554;-72
2022/08/17 17:55:03;;;;;;;22.67;14.98;;;;;;;26.29;55.69;99925.64;1733043;82;25573;-72
2022/08/17 17:57:54;;;;;;;20.15;15.35;;;;;;;26.19;56.01;99932.17;1732989;82;25398;-72
2022/08/17 18:00:25;;;;;;;22.13;14.18;;;;;;;26.12;56.06;99940.59;1732741;82;25585;-72
2022/08/17 18:03:19;;;;;;;18.07;15.40;;;;;;;26.03;56.56;99946.70;1733151;82;25380;-72
2022/08/17 18:06:15;;;;;;;16.70;14.85;;;;;;;25.97;56.80;99940.09;1733109;82;27531;-72
2022/08/17 18:09:09;;;;;;;17.32;14.03;;;;;;;25.87;57.37;99936.27;1733072;82;25603;-72
2022/08/17 18:12:00;;;;;;;16.25;14.58;;;;;;;25.77;57.52;99933.08;1732706;82;25448;-72
2022/08/17 18:14:44;;;;;;;19.85;15.53;;;;;;;25.67;57.40;99938.36;1728481;82;25712;-72
2022/08/17 18:17:13;;;;;;;17.10;14.63;;;;;;;25.59;58.25;99954.94;1728241;82;25409;-72
2022/08/17 18:19:40;;;;;;;22.67;16.75;;;;;;;25.49;58.43;99953.89;1728308;82;27461;-72
2022/08/17 18:22:17;;;;;;;22.27;16.42;;;;;;;25.42;58.88;99952.63;1728149;82;25570;-72
2022/08/17 18:24:54;;;;;;;17.20;15.25;;;;;;;25.36;59.19;99952.91;1728130;82;25433;-72
2022/08/17 18:27:31;;;;;;;18.40;16.10;;;;;;;25.28;59.70;99953.59;1727425;82;25684;-72
2022/08/17 18:30:02;;;;;;;23.18;16.60;;;;;;;25.20;59.84;99955.48;1728289;83;25378;-72
2022/08/17 18:32:34;;;;;;;29.27;20.62;;;;;;;25.11;60.16;99957.38;1728210;83;28110;-72
2022/08/17 18:35:14;;;;;;;24.18;17.37;;;;;;;25.03;60.26;99959.48;1726969;82;25683;-72
2022/08/17 18:37:51;;;;;;;25.92;20.90;;;;;;;24.94;60.81;99952.27;1727307;82;25380;-73
2022/08/17 18:40:23;;;;;;;25.95;19.92;;;;;;;24.85;61.01;99945.09;1728133;83;25490;-72
2022/08/17 18:43:01;;;;;;;21.62;16.85;;;;;;;24.77;61.22;99945.77;1728194;83;25440;-72
2022/08/17 18:45:47;;;;;;;19.70;17.60;;;;;;;24.70;61.74;99955.55;1728222;83;27448;-71
2022/08/17 18:48:37;;;;;;;20.48;17.35;;;;;;;24.62;61.98;99949.34;1728164;82;25716;-71
2022/08/17 18:51:33;;;;;;;19.45;17.00;;;;;;;24.54;62.15;99951.39;1724943;82;25565;-71
2022/08/17 18:54:08;;;;;;;24.02;17.82;;;;;;;24.49;62.53;99951.81;1728147;82;25385;-71
2022/08/17 18:56:39;;;;;;;21.60;17.07;;;;;;;24.42;62.65;99959.58;1717012;83;25881;-72
2022/08/17 18:59:34;;;;;;;21.35;16.25;;;;;;;24.38;62.74;99969.91;1728360;82;27489;-72
2022/08/17 19:02:16;;;;;;;23.42;16.27;;;;;;;24.32;62.77;99969.38;1728015;82;25681;-71
2022/08/17 19:05:03;;;;;;;18.50;16.65;;;;;;;24.27;63.01;99976.73;1728235;83;25508;-71
2022/08/17 19:07:34;;;;;;;19.00;16.73;;;;;;;24.18;63.18;99978.61;1728083;83;25924;-72
2022/08/17 19:10:23;;;;;;;24.55;18.40;;;;;;;24.11;63.64;99972.55;1728346;82;25582;-72
2022/08/17 19:12:59;;;;;;;23.20;17.05;;;;;;;24.06;63.85;99971.61;1726894;83;27484;-71
2022/08/17 19:15:34;;;;;;;23.98;17.27;;;;;;;24.00;64.09;99979.53;1728382;82;25676;-72
2022/08/17 19:18:08;;;;;;;19.73;17.62;;;;;;;23.93;64.61;99978.22;1728494;82;25448;-72
2022/08/17 19:20:40;;;;;;;24.05;18.35;;;;;;;23.88;64.85;99982.03;1722191;82;25524;-72
2022/08/17 19:23:23;;;;;;;24.20;20.17;;;;;;;23.81;65.22;99979.50;1728312;82;25418;-72
2022/08/17 19:25:53;;;;;;;24.60;20.80;;;;;;;23.77;65.42;99984.83;1728281;82;27546;-72
2022/08/17 19:28:30;;;;;;;25.02;20.70;;;;;;;23.68;65.56;99988.05;1728341;82;25676;-71
2022/08/17 19:31:04;;;;;;;24.65;18.40;;;;;;;23.59;65.73;99991.88;1728244;83;25575;-72
2022/08/17 19:33:31;;;;;;;20.50;18.40;;;;;;;23.50;66.22;99989.58;1728461;83;25623;-71
2022/08/17 19:36:09;;;;;;;22.60;18.98;;;;;;;23.43;66.37;99998.68;1728402;83;25250;-71
2022/08/17 19:38:49;;;;;;;21.87;19.40;;;;;;;23.38;66.58;100000.48;1728725;83;27446;-72
2022/08/17 19:41:21;;;;;;;20.20;18.10;;;;;;;23.30;66.90;99996.19;1729050;82;25398;-71
2022/08/17 19:44:14;;;;;;;22.30;18.02;;;;;;;23.25;66.98;100005.67;1729404;82;25526;-71
2022/08/17 19:47:14;;;;;;;20.60;18.25;;;;;;;23.22;67.00;100002.94;1729123;82;25531;-71
2022/08/17 19:49:58;;;;;;;22.77;18.77;;;;;;;23.18;67.32;100003.56;1728468;83;25149;-70
2022/08/17 19:52:35;;;;;;;22.07;19.27;;;;;;;23.13;67.61;99997.26;1729331;83;27480;-70
2022/08/17 19:55:18;;;;;;;24.43;20.20;;;;;;;23.07;68.17;100005.78;1728692;82;25310;-71
2022/08/17 19:58:02;;;;;;;25.80;20.72;;;;;;;23.04;68.20;100000.25;1729335;82;25612;-71
2022/08/17 20:00:31;;;;;;;25.68;22.85;;;;;;;22.98;68.38;100004.00;1728089;82;25746;-70
2022/08/17 20:03:14;;;;;;;75.87;53.48;;;;;;;22.94;68.67;100007.38;1728582;82;25627;-72
2022/08/17 20:05:59;;;;;;;46.68;30.72;;;;;;;22.89;68.77;100010.55;1728564;82;27644;-71
2022/08/17 20:08:30;;;;;;;27.35;21.45;;;;;;;22.81;68.92;100008.40;1728687;83;25472;-72
2022/08/17 20:11:08;;;;;;;25.15;21.42;;;;;;;22.74;69.28;100006.45;1728544;83;25448;-71
2022/08/17 20:13:48;;;;;;;23.40;20.97;;;;;;;22.72;69.53;100010.20;1719590;82;25697;-72
2022/08/17 20:16:16;;;;;;;29.80;22.73;;;;;;;22.68;69.68;100010.81;1721831;82;25407;-72
2022/08/17 20:19:00;;;;;;;25.82;22.45;;;;;;;22.64;69.83;100012.00;1727851;83;27496;-72
2022/08/17 20:21:36;;;;;;;26.68;23.80;;;;;;;22.61;69.91;100012.80;1728218;83;25499;-72
2022/08/17 20:24:16;;;;;;;30.23;24.05;;;;;;;22.56;70.18;100010.66;1730621;82;25385;-72
2022/08/17 20:27:00;;;;;;;26.40;23.55;;;;;;;22.50;70.30;100011.45;1708897;83;26080;-72
2022/08/17 20:29:32;;;;;;;23.62;21.10;;;;;;;22.45;70.64;100002.21;1726053;82;25440;-72
2022/08/17 20:32:04;;;;;;;26.87;20.88;;;;;;;22.42;70.62;100007.91;1728190;82;27537;-71
2022/08/17 20:34:36;;;;;;;26.93;22.05;;;;;;;22.39;71.19;100010.10;1728141;82;25376;-71
2022/08/17 20:37:30;;;;;;;25.62;22.35;;;;;;;22.34;71.35;100012.66;1728449;83;25567;-72
2022/08/17 20:40:09;;;;;;;24.55;20.82;;;;;;;22.28;71.48;100010.70;1706301;83;25465;-72
2022/08/17 20:42:38;;;;;;;23.10;20.60;;;;;;;22.22;71.51;100019.94;1728349;82;25384;-71
2022/08/17 20:45:25;;;;;;;26.48;21.82;;;;;;;22.18;71.70;100018.53;1728356;82;27715;-71
2022/08/17 20:47:59;;;;;;;29.15;21.97;;;;;;;22.16;71.85;100031.14;1633989;87;25677;-71
2022/08/17 20:50:36;;;;;;;30.57;22.77;;;;;;;22.13;71.93;100032.70;1631262;87;25632;-71
2022/08/17 20:53:12;;;;;;;29.57;21.42;;;;;;;22.12;72.08;100035.88;1634048;87;25968;-71
2022/08/17 20:55:44;;;;;;;23.73;20.85;;;;;;;22.11;72.24;100032.91;1634476;87;25644;-71
2022/08/17 20:58:29;;;;;;;25.43;22.58;;;;;;;22.09;72.37;100041.56;1633703;87;28114;-72
2022/08/17 21:01:09;;;;;;;25.17;21.27;;;;;;;22.10;72.69;100040.97;1633716;87;25633;-72
2022/08/17 21:03:41;;;;;;;23.52;21.02;;;;;;;22.07;73.05;100033.52;1633542;87;25624;-72
2022/08/17 21:06:12;;;;;;;24.77;22.17;;;;;;;22.06;73.20;100035.46;1633658;87;25739;-71
2022/08/17 21:08:59;;;;;;;25.72;22.93;;;;;;;22.05;73.19;100039.41;1633708;87;25710;-71
2022/08/17 21:11:31;;;;;;;24.90;22.30;;;;;;;22.04;73.41;100033.70;1633632;87;28143;-71
2022/08/17 21:14:36;;;;;;;31.02;23.60;;;;;;;22.03;73.54;100037.63;1628771;86;25710;-71
2022/08/17 21:17:17;;;;;;;25.70;22.17;;;;;;;22.01;73.60;100039.41;1621262;88;25573;-72
2022/08/17 21:20:00;;;;;;;30.37;24.35;;;;;;;22.00;73.88;100051.59;1620307;88;25544;-72
2022/08/17 21:22:32;;;;;;;26.15;23.45;;;;;;;21.98;73.98;100049.83;1619590;87;25706;-72
2022/08/17 21:25:16;;;;;;;27.62;22.58;;;;;;;21.98;74.01;100060.04;1720842;82;27450;-72
2022/08/17 21:28:03;;;;;;;29.35;22.48;;;;;;;21.98;74.14;100062.80;1713546;82;25871;-72
2022/08/17 21:30:38;;;;;;;24.35;21.35;;;;;;;21.98;74.23;100057.29;1712071;83;25482;-72
2022/08/17 21:33:28;;;;;;;26.10;23.45;;;;;;;21.99;74.36;100053.36;1713117;83;25593;-72
2022/08/17 21:36:11;;;;;;;25.60;23.00;;;;;;;21.99;74.49;100044.51;1714047;82;25585;-73
2022/08/17 21:38:43;;;;;;;29.98;23.60;;;;;;;21.99;74.59;100040.98;1713822;83;27484;-71
2022/08/17 21:41:36;;;;;;;31.05;24.00;;;;;;;21.96;74.71;100051.39;1714835;82;25881;-73
2022/08/17 21:44:38;;;;;;;26.30;21.87;;;;;;;21.93;74.60;100059.05;1711769;83;25434;-72
2022/08/17 21:47:19;;;;;;;26.33;22.07;;;;;;;21.93;74.91;100068.69;1699856;83;25682;-71
2022/08/17 21:49:46;;;;;;;31.42;22.35;;;;;;;21.91;74.93;100067.70;1719879;82;25723;-71
2022/08/17 21:52:16;;;;;;;27.17;22.75;;;;;;;21.91;75.11;100062.80;1715860;83;27481;-71
2022/08/17 21:54:50;;;;;;;26.50;22.77;;;;;;;21.94;75.18;100062.02;1711387;83;25404;-72
2022/08/17 21:57:21;;;;;;;28.57;21.55;;;;;;;21.94;75.35;100064.17;1711013;83;25386;-71
2022/08/17 21:59:55;;;;;;;29.95;22.22;;;;;;;21.94;75.35;100056.51;1712887;83;25551;-71
2022/08/17 22:02:27;;;;;;;32.35;21.82;;;;;;;21.95;75.43;100051.98;1714280;82;25567;-71
2022/08/17 22:05:08;;;;;;;27.07;22.73;;;;;;;21.96;75.56;100047.27;1712638;83;28075;-73
2022/08/17 22:07:42;;;;;;;26.50;22.62;;;;;;;21.93;75.58;100043.34;1713286;83;25539;-71
2022/08/17 22:10:39;;;;;;;27.77;22.80;;;;;;;21.95;75.56;100054.74;1715991;83;25530;-71
2022/08/17 22:13:11;;;;;;;24.80;22.10;;;;;;;21.96;75.70;100048.64;1712419;83;25539;-71
2022/08/17 22:15:41;;;;;;;26.33;22.98;;;;;;;21.94;75.76;100040.77;1725505;83;25365;-71
2022/08/17 22:18:19;;;;;;;29.87;23.47;;;;;;;21.95;75.82;100038.22;1728210;83;28007;-71
2022/08/17 22:20:50;;;;;;;25.70;22.98;;;;;;;21.95;75.72;100041.58;1729858;82;25786;-71
2022/08/17 22:26:21;;;;;;;27.30;23.12;;;;;;;21.91;76.11;100047.05;1733134;82;26160;-71
2022/08/17 22:28:52;;;;;;;28.05;23.55;;;;;;;21.89;76.24;100048.64;1733201;82;25550;-71
2022/08/17 22:31:23;;;;;;;31.17;22.87;;;;;;;21.86;75.95;100042.53;1732477;82;27495;-71
2022/08/17 22:34:01;;;;;;;25.30;21.77;;;;;;;21.86;75.93;100045.28;1733010;82;25695;-71
2022/08/17 22:36:32;;;;;;;26.90;22.05;;;;;;;21.83;75.85;100031.73;1732407;81;25446;-71
2022/08/17 22:39:10;;;;;;;25.68;22.98;;;;;;;21.81;76.01;100031.31;1732320;81;25647;-72
2022/08/17 22:41:49;;;;;;;27.15;24.02;;;;;;;21.80;75.90;100035.27;1731619;82;25433;-72
2022/08/17 22:44:26;;;;;;;25.65;22.27;;;;;;;21.77;76.04;100029.16;1733276;82;27454;-72
2022/08/17 22:47:06;;;;;;;27.37;22.90;;;;;;;21.72;75.82;100027.57;1733094;82;25589;-72
2022/08/17 22:49:48;;;;;;;25.88;22.80;;;;;;;21.68;76.29;100021.28;1733271;82;25594;-72
2022/08/17 22:59:18;;;;;;;24.25;21.87;;;;;;;21.63;75.98;100021.08;1733056;82;25549;-72
2022/08/17 23:00:48;;;;;;;30.75;23.50;;;;;;;21.50;76.58;100006.70;1733091;82;25567;-71
2022/08/17 23:03:24;;;;;;;26.45;23.10;;;;;;;21.46;76.40;100005.30;1733289;82;25608;-71
2022/08/17 23:06:07;;;;;;;26.30;23.52;;;;;;;21.42;76.54;100002.55;1733193;82;25574;-71
2022/08/17 23:08:47;;;;;;;26.10;22.77;;;;;;;21.40;76.46;100010.97;1733158;82;25597;-71